Aviation Digital Data Service (ADDS)

Output produced by METARs form (0746 UTC 20 January 2017)
found at http://aviationweather.gov/adds/metars/
 
KCLT 200535Z 2006/2106 15006KT P6SM SCT040 BKN120 
     FM200900 14006KT P6SM -SHRA OVC040 
     FM201100 16007KT 4SM -SHRA BR OVC020 
     FM201300 18006KT 4SM -SHRA BR OVC007 
     FM201600 20006KT P6SM OVC007 
     FM202200 20003KT P6SM BKN035 
     FM210400 21003KT P6SM BKN025